NCAR-RAP Real-Time Weather Data

Output produced by METARs form (10 April 2020  07:18 UTC)
found at http://weather.rap.ucar.edu/surface/
 
KANJ 100655Z AUTO 32008G17KT 10SM CLR 00/M08 A2969 RMK AO2 SLP057 T00001083